Terminal Aerodrome Forecast
Issued by NWS Albany, NY

Home | Current Version | Previous Version | Text Only | Print | Product List | Glossary On
Versions: 1 2 3 4 5 6 7 8 9 10 11 12 13 14 15 16 17 18 19 20 21 22 23 24 25 26 27
000
FTUS41 KALY 181600 AAA
TAFALB
TAF AMD
KALB 181610Z 1816/1912 18008G16KT P6SM BKN250
     FM181800 18010KT P6SM BKN150 BKN200
     FM190000 17006KT P6SM OVC120=

USA.gov is the U.S. government's official web portal to all federal, state and local government web resources and services.